createdAt,value
2022-08-27T00:02:47.081Z,20.35
2022-08-27T00:05:48.966Z,20.30
2022-08-27T00:08:50.824Z,20.36
2022-08-27T00:11:52.592Z,20.48
2022-08-27T00:14:55.736Z,20.52
2022-08-27T00:17:57.879Z,20.44
2022-08-27T00:20:59.601Z,20.38
2022-08-27T00:24:01.801Z,20.52
2022-08-27T00:27:03.851Z,20.46
2022-08-27T00:30:09.197Z,20.39
2022-08-27T00:33:11.079Z,20.05
2022-08-27T00:36:13.510Z,19.71
2022-08-27T00:39:15.514Z,19.51
2022-08-27T00:42:17.248Z,19.65
2022-08-27T00:45:22.006Z,19.76
2022-08-27T00:48:24.895Z,19.83
2022-08-27T00:51:27.551Z,19.91
2022-08-27T00:54:29.731Z,19.92
2022-08-27T00:57:31.756Z,19.94
2022-08-27T01:00:35.134Z,20.03
2022-08-27T01:03:37.196Z,20.08
2022-08-27T01:06:39.038Z,20.06
2022-08-27T01:09:41.994Z,20.16
2022-08-27T01:12:44.072Z,20.07
2022-08-27T01:15:47.471Z,20.03
2022-08-27T01:18:49.410Z,19.99
2022-08-27T01:21:55.301Z,20.01
2022-08-27T01:24:59.909Z,19.90
2022-08-27T01:28:03.063Z,20.00
2022-08-27T01:31:05.807Z,20.01
2022-08-27T01:34:07.534Z,19.82
2022-08-27T01:37:09.552Z,19.84
2022-08-27T01:40:13.479Z,19.70
2022-08-27T01:43:15.487Z,19.73
2022-08-27T01:46:20.968Z,19.77
2022-08-27T01:49:22.758Z,19.78
2022-08-27T01:52:26.961Z,19.88
2022-08-27T01:55:30.032Z,19.93
2022-08-27T01:58:31.789Z,19.89
2022-08-27T02:01:33.488Z,19.87
2022-08-27T02:04:35.200Z,19.55
2022-08-27T02:07:37.010Z,19.58
2022-08-27T02:10:40.331Z,19.67
2022-08-27T02:13:42.026Z,19.64
2022-08-27T02:16:52.298Z,19.62
2022-08-27T02:19:54.668Z,19.54
2022-08-27T02:22:56.403Z,19.47
2022-08-27T02:25:59.740Z,19.40
2022-08-27T02:29:01.598Z,19.31
2022-08-27T02:32:03.644Z,19.15
2022-08-27T02:35:05.854Z,19.19
2022-08-27T02:38:07.933Z,19.15
2022-08-27T02:41:11.205Z,19.14
2022-08-27T02:44:13.818Z,19.12
2022-08-27T02:47:15.667Z,19.11
2022-08-27T02:50:17.560Z,19.19
2022-08-27T02:53:19.400Z,19.18
2022-08-27T02:56:22.875Z,19.19
2022-08-27T02:59:25.590Z,19.31
2022-08-27T03:02:27.649Z,19.30
2022-08-27T03:05:29.561Z,19.40
2022-08-27T03:08:36.492Z,19.35
2022-08-27T03:11:54.384Z,19.28
2022-08-27T03:14:56.116Z,19.22
2022-08-27T03:17:57.832Z,19.33
2022-08-27T03:20:59.777Z,19.35
2022-08-27T03:24:11.656Z,19.43
2022-08-27T03:27:17.779Z,19.40
2022-08-27T03:30:20.892Z,19.38
2022-08-27T03:33:22.646Z,19.43
2022-08-27T03:36:25.147Z,19.39
2022-08-27T03:39:26.905Z,19.47
2022-08-27T03:42:30.037Z,19.53
2022-08-27T03:45:31.825Z,19.55
2022-08-27T03:48:57.380Z,19.61
2022-08-27T03:51:59.263Z,19.54
2022-08-27T03:55:00.992Z,19.54
2022-08-27T03:58:04.135Z,19.47
2022-08-27T04:01:06.341Z,19.50
2022-08-27T04:04:08.128Z,19.55
2022-08-27T04:07:09.844Z,19.51
2022-08-27T04:10:12.233Z,19.46
2022-08-27T04:13:15.439Z,19.51
2022-08-27T04:16:17.182Z,19.55
2022-08-27T04:19:18.982Z,19.57
2022-08-27T04:22:20.982Z,19.55
2022-08-27T04:25:23.459Z,19.49
2022-08-27T04:28:26.547Z,19.52
2022-08-27T04:31:28.346Z,19.43
2022-08-27T04:34:30.126Z,19.40
2022-08-27T04:37:32.077Z,19.40
2022-08-27T04:40:34.250Z,19.38
2022-08-27T04:43:37.368Z,19.41
2022-08-27T04:46:40.566Z,19.44
2022-08-27T04:49:42.354Z,19.48
2022-08-27T04:52:44.035Z,19.49
2022-08-27T04:55:46.541Z,19.54
2022-08-27T04:58:49.796Z,19.65
2022-08-27T05:01:51.616Z,19.60
2022-08-27T05:04:53.590Z,19.62
2022-08-27T05:07:55.492Z,19.60
2022-08-27T05:10:57.557Z,19.64
2022-08-27T05:14:01.317Z,19.65
2022-08-27T05:17:03.032Z,19.64
2022-08-27T05:20:05.207Z,19.64
2022-08-27T05:23:06.939Z,19.37
2022-08-27T05:26:08.748Z,19.27
2022-08-27T05:29:11.947Z,19.32
2022-08-27T05:32:13.739Z,19.14
2022-08-27T05:35:15.866Z,19.06
2022-08-27T05:38:17.949Z,18.96
2022-08-27T05:41:20.936Z,18.99
2022-08-27T05:47:45.756Z,19.12
2022-08-27T05:50:47.427Z,19.04
2022-08-27T05:53:49.591Z,19.07
2022-08-27T05:56:51.264Z,19.13
2022-08-27T05:59:54.315Z,19.16
2022-08-27T06:02:56.077Z,19.05
2022-08-27T06:06:00.015Z,19.07
2022-08-27T06:09:01.873Z,19.18
2022-08-27T06:12:03.705Z,19.23
2022-08-27T06:15:07.331Z,19.14
2022-08-27T06:18:09.029Z,19.06
2022-08-27T06:21:12.022Z,19.08
2022-08-27T06:24:14.076Z,19.23
2022-08-27T06:27:16.696Z,19.25
2022-08-27T06:30:19.813Z,19.33
2022-08-27T06:33:21.520Z,19.39
2022-08-27T06:36:26.041Z,19.20
2022-08-27T06:39:28.496Z,19.08
2022-08-27T06:42:32.863Z,19.06
2022-08-27T06:45:39.230Z,19.07
2022-08-27T06:48:41.263Z,19.08
2022-08-27T06:51:44.318Z,19.15
2022-08-27T06:54:46.055Z,19.19
2022-08-27T06:57:47.724Z,19.13
2022-08-27T07:00:52.011Z,19.09
2022-08-27T07:03:54.249Z,19.00
2022-08-27T07:06:55.965Z,18.96
2022-08-27T07:09:58.784Z,18.80
2022-08-27T07:13:00.818Z,18.84
2022-08-27T07:16:06.205Z,18.73
2022-08-27T07:19:08.021Z,18.71
2022-08-27T07:22:09.739Z,18.74
2022-08-27T07:25:13.727Z,18.79
2022-08-27T07:28:16.117Z,18.93
2022-08-27T07:31:20.494Z,18.94
2022-08-27T07:34:22.277Z,18.96
2022-08-27T07:37:24.331Z,18.99
2022-08-27T07:40:34.295Z,18.94
2022-08-27T07:43:36.712Z,19.03
2022-08-27T07:46:41.767Z,19.09
2022-08-27T07:49:45.127Z,19.31
2022-08-27T07:52:46.981Z,19.40
2022-08-27T07:55:48.672Z,19.40
2022-08-27T07:58:50.575Z,19.54
2022-08-27T08:01:53.877Z,19.59
2022-08-27T08:04:55.895Z,19.74
2022-08-27T08:07:57.658Z,19.78
2022-08-27T08:10:59.434Z,19.79
2022-08-27T08:14:01.712Z,19.90
2022-08-27T08:17:05.662Z,20.02
2022-08-27T08:20:30.863Z,20.03
2022-08-27T08:23:34.262Z,19.97
2022-08-27T08:26:36.223Z,19.93
2022-08-27T08:29:38.219Z,19.98
2022-08-27T08:32:41.822Z,20.00
2022-08-27T08:35:43.599Z,19.98
2022-08-27T08:38:46.182Z,19.98
2022-08-27T08:41:50.477Z,20.00
2022-08-27T08:44:52.939Z,20.06
2022-08-27T08:47:58.372Z,20.13
2022-08-27T08:51:03.684Z,20.14
2022-08-27T08:54:07.452Z,20.21
2022-08-27T08:57:18.693Z,20.35
2022-08-27T09:00:20.625Z,20.37
2022-08-27T09:03:24.219Z,20.38
2022-08-27T09:06:30.687Z,20.47
2022-08-27T09:09:35.275Z,20.56
2022-08-27T09:12:36.967Z,20.53
2022-08-27T09:15:39.091Z,20.66
2022-08-27T09:18:42.349Z,20.70
2022-08-27T09:21:51.569Z,20.86
2022-08-27T09:24:58.951Z,20.77
2022-08-27T09:28:01.240Z,20.78
2022-08-27T09:31:04.973Z,20.82
2022-08-27T09:34:08.112Z,20.86
2022-08-27T09:37:14.091Z,20.86
2022-08-27T09:40:22.761Z,20.98
2022-08-27T09:43:26.771Z,20.79
2022-08-27T09:46:28.705Z,20.82
2022-08-27T09:49:31.827Z,20.70
2022-08-27T09:52:37.831Z,20.65
2022-08-27T09:55:49.604Z,20.59
2022-08-27T09:58:52.856Z,20.67
2022-08-27T10:01:55.756Z,20.55
2022-08-27T10:05:01.649Z,20.63
2022-08-27T10:08:08.988Z,20.68
2022-08-27T10:11:14.379Z,20.66
2022-08-27T10:14:18.327Z,20.67
2022-08-27T10:17:23.618Z,20.77
2022-08-27T10:20:34.139Z,20.79
2022-08-27T10:23:40.962Z,20.70
2022-08-27T10:26:48.294Z,20.80
2022-08-27T10:29:54.582Z,20.76
2022-08-27T10:33:03.858Z,20.70
2022-08-27T10:36:11.528Z,20.86
2022-08-27T10:39:19.695Z,20.82
2022-08-27T10:42:26.621Z,20.76
2022-08-27T10:45:34.793Z,20.77
2022-08-27T10:48:39.284Z,20.81
2022-08-27T10:51:45.847Z,21.11
2022-08-27T10:54:52.446Z,20.97
2022-08-27T10:58:15.484Z,21.12
2022-08-27T11:01:22.220Z,21.26
2022-08-27T11:04:25.954Z,21.23
2022-08-27T11:07:30.650Z,21.31
2022-08-27T11:10:34.077Z,21.40
2022-08-27T11:16:45.387Z,21.43
2022-08-27T11:19:54.359Z,21.38
2022-08-27T11:23:00.254Z,21.35
2022-08-27T11:26:03.082Z,21.45
2022-08-27T11:29:15.173Z,21.54
2022-08-27T11:32:22.428Z,21.64
2022-08-27T11:35:28.591Z,21.71
2022-08-27T11:38:43.829Z,21.78
2022-08-27T11:41:59.552Z,21.70
2022-08-27T11:45:05.506Z,21.71
2022-08-27T11:48:17.994Z,21.86
2022-08-27T11:51:27.173Z,21.92
2022-08-27T11:54:31.785Z,21.90
2022-08-27T11:57:34.890Z,21.85
2022-08-27T12:00:37.747Z,22.01
2022-08-27T12:03:39.474Z,22.16
2022-08-27T12:06:42.899Z,22.31
2022-08-27T12:09:58.684Z,22.32
2022-08-27T12:13:15.274Z,22.15
2022-08-27T12:16:25.878Z,22.23
2022-08-27T12:19:33.085Z,22.42
2022-08-27T12:22:44.447Z,22.56
2022-08-27T12:25:55.859Z,22.76
2022-08-27T12:29:12.384Z,22.81
2022-08-27T12:32:21.856Z,22.86
2022-08-27T12:35:29.536Z,22.85
2022-08-27T12:38:37.901Z,22.98
2022-08-27T12:41:45.051Z,22.81
2022-08-27T12:44:46.907Z,22.75
2022-08-27T12:47:50.886Z,22.71
2022-08-27T12:50:56.229Z,22.68
2022-08-27T12:54:01.743Z,22.62
2022-08-27T12:57:08.833Z,22.59
2022-08-27T13:00:13.981Z,22.57
2022-08-27T13:03:21.598Z,22.70
2022-08-27T13:06:27.338Z,22.62
2022-08-27T13:09:30.073Z,22.73
2022-08-27T13:12:33.212Z,22.77
2022-08-27T13:15:35.490Z,22.82
2022-08-27T13:18:37.370Z,22.94
2022-08-27T13:21:39.128Z,23.10
2022-08-27T13:24:45.884Z,23.12
2022-08-27T13:27:53.451Z,23.30
2022-08-27T13:30:55.929Z,23.36
2022-08-27T13:33:58.054Z,23.16
2022-08-27T13:37:00.935Z,23.07
2022-08-27T13:40:02.972Z,22.96
2022-08-27T13:43:08.690Z,23.00
2022-08-27T13:46:12.624Z,23.19
2022-08-27T13:49:17.070Z,23.45
2022-08-27T13:52:23.833Z,23.68
2022-08-27T13:55:25.798Z,23.64
2022-08-27T13:58:29.758Z,23.44
2022-08-27T14:01:33.036Z,23.37
2022-08-27T14:04:36.708Z,23.03
2022-08-27T14:07:40.519Z,22.71
2022-08-27T14:10:45.083Z,22.56
2022-08-27T14:13:48.449Z,22.56
2022-08-27T14:16:56.771Z,22.55
2022-08-27T14:20:00.404Z,22.57
2022-08-27T14:23:02.462Z,22.68
2022-08-27T14:26:04.195Z,22.64
2022-08-27T14:29:11.775Z,22.66
2022-08-27T14:32:14.377Z,22.82
2022-08-27T14:35:16.853Z,22.91
2022-08-27T14:38:31.267Z,22.92
2022-08-27T14:41:33.147Z,22.80
2022-08-27T14:44:36.755Z,22.64
2022-08-27T14:47:39.959Z,22.64
2022-08-27T14:50:41.662Z,22.72
2022-08-27T14:53:43.456Z,22.94
2022-08-27T14:56:45.192Z,23.22
2022-08-27T14:59:48.279Z,23.40
2022-08-27T15:02:49.990Z,23.50
2022-08-27T15:05:52.285Z,23.70
2022-08-27T15:08:54.084Z,23.89
2022-08-27T15:11:56.621Z,23.95
2022-08-27T15:14:59.723Z,24.07
2022-08-27T15:18:01.434Z,24.24
2022-08-27T15:21:03.242Z,24.19
2022-08-27T15:24:06.611Z,24.08
2022-08-27T15:27:08.540Z,24.11
2022-08-27T15:30:13.099Z,24.13
2022-08-27T15:33:14.823Z,24.29
2022-08-27T15:36:16.667Z,24.30
2022-08-27T15:39:18.392Z,24.56
2022-08-27T15:42:20.558Z,24.50
2022-08-27T15:45:25.775Z,24.43
2022-08-27T15:48:29.636Z,24.78
2022-08-27T15:51:32.274Z,24.71
2022-08-27T15:54:34.287Z,24.85
2022-08-27T15:57:35.917Z,24.89
2022-08-27T16:00:39.408Z,24.76
2022-08-27T16:03:41.843Z,24.74
2022-08-27T16:06:43.518Z,24.97
2022-08-27T16:09:45.187Z,25.28
2022-08-27T16:12:46.864Z,25.41
2022-08-27T16:15:49.987Z,25.54
2022-08-27T16:18:51.787Z,25.27
2022-08-27T16:21:54.409Z,25.31
2022-08-27T16:24:56.103Z,25.22
2022-08-27T16:27:57.766Z,25.73
2022-08-27T16:31:01.730Z,25.94
2022-08-27T16:34:04.017Z,26.06
2022-08-27T16:37:05.896Z,26.23
2022-08-27T16:40:08.192Z,26.36
2022-08-27T16:43:12.552Z,26.42
2022-08-27T16:46:15.750Z,26.01
2022-08-27T16:49:17.518Z,25.72
2022-08-27T16:52:19.440Z,25.85
2022-08-27T16:55:21.218Z,26.34
2022-08-27T16:58:26.041Z,26.39
2022-08-27T17:01:29.670Z,25.92
2022-08-27T17:04:38.075Z,26.09
2022-08-27T17:07:44.116Z,26.18
2022-08-27T17:10:52.490Z,26.38
2022-08-27T17:13:55.379Z,26.27
2022-08-27T17:16:58.483Z,26.19
2022-08-27T17:20:00.258Z,26.18
2022-08-27T17:23:02.972Z,26.06
2022-08-27T17:26:05.494Z,25.86
2022-08-27T17:29:07.203Z,25.54
2022-08-27T17:32:10.256Z,25.43
2022-08-27T17:35:11.904Z,25.22
2022-08-27T17:38:13.911Z,25.12
2022-08-27T17:41:21.201Z,25.03
2022-08-27T17:44:23.920Z,24.54
2022-08-27T17:47:27.021Z,24.18
2022-08-27T17:50:28.758Z,23.95
2022-08-27T17:53:30.449Z,23.88
2022-08-27T17:56:32.172Z,23.87
2022-08-27T17:59:33.946Z,23.47
2022-08-27T18:02:38.748Z,23.38
2022-08-27T18:05:40.504Z,23.42
2022-08-27T18:08:42.177Z,23.46
2022-08-27T18:11:45.223Z,23.61
2022-08-27T18:14:49.108Z,23.69
2022-08-27T18:17:53.423Z,23.74
2022-08-27T18:20:55.455Z,23.77
2022-08-27T18:23:58.254Z,23.78
2022-08-27T18:27:00.524Z,23.77
2022-08-27T18:30:03.809Z,23.65
2022-08-27T18:33:07.097Z,23.38
2022-08-27T18:36:08.942Z,23.46
2022-08-27T18:39:10.613Z,23.38
2022-08-27T18:42:12.708Z,23.21
2022-08-27T18:45:16.057Z,22.67
2022-08-27T18:48:20.426Z,22.51
2022-08-27T18:51:22.368Z,22.35
2022-08-27T18:54:24.853Z,22.45
2022-08-27T18:57:26.589Z,22.48
2022-08-27T19:00:28.497Z,22.65
2022-08-27T19:03:33.421Z,22.64
2022-08-27T19:06:35.240Z,22.71
2022-08-27T19:09:36.954Z,22.44
2022-08-27T19:12:38.682Z,21.83
2022-08-27T19:15:42.373Z,21.79
2022-08-27T19:18:45.954Z,21.87
2022-08-27T19:21:51.443Z,21.80
2022-08-27T19:24:53.845Z,21.96
2022-08-27T19:27:55.829Z,22.12
2022-08-27T19:30:57.471Z,22.10
2022-08-27T19:34:00.547Z,21.83
2022-08-27T19:37:02.741Z,21.36
2022-08-27T19:40:05.260Z,21.47
2022-08-27T19:43:07.370Z,21.56
2022-08-27T19:46:09.797Z,21.71
2022-08-27T19:49:12.893Z,21.80
2022-08-27T19:52:14.578Z,21.94
2022-08-27T19:55:16.605Z,22.00
2022-08-27T19:58:18.756Z,21.98
2022-08-27T20:01:20.606Z,21.96
2022-08-27T20:04:23.738Z,21.99
2022-08-27T20:07:25.523Z,22.00
2022-08-27T20:10:36.254Z,21.99
2022-08-27T20:13:47.944Z,22.06
2022-08-27T20:16:52.771Z,22.08
2022-08-27T20:19:56.421Z,22.13
2022-08-27T20:22:58.709Z,22.08
2022-08-27T20:26:01.390Z,22.07
2022-08-27T20:29:03.515Z,22.10
2022-08-27T20:32:05.286Z,22.13
2022-08-27T20:35:09.821Z,22.09
2022-08-27T20:38:11.692Z,22.09
2022-08-27T20:41:13.485Z,22.10
2022-08-27T20:44:15.161Z,22.09
2022-08-27T20:47:18.817Z,22.03
2022-08-27T20:50:22.140Z,22.01
2022-08-27T20:53:23.926Z,21.83
2022-08-27T20:56:25.603Z,21.59
2022-08-27T20:59:27.349Z,21.56
2022-08-27T21:02:29.569Z,21.66
2022-08-27T21:05:33.526Z,21.72
2022-08-27T21:08:35.363Z,21.74
2022-08-27T21:11:37.043Z,21.77
2022-08-27T21:14:39.067Z,21.78
2022-08-27T21:17:41.268Z,21.71
2022-08-27T21:20:44.317Z,21.72
2022-08-27T21:23:45.978Z,21.69
2022-08-27T21:26:48.038Z,21.72
2022-08-27T21:29:50.013Z,21.72
2022-08-27T21:32:52.173Z,21.69
2022-08-27T21:35:55.286Z,21.66
2022-08-27T21:38:57.010Z,21.68
2022-08-27T21:41:58.981Z,21.65
2022-08-27T21:45:00.692Z,21.55
2022-08-27T21:48:02.611Z,21.60
2022-08-27T21:51:08.385Z,21.60
2022-08-27T21:54:10.153Z,21.52
2022-08-27T21:57:13.966Z,21.46
2022-08-27T22:00:32.782Z,21.32
2022-08-27T22:03:34.929Z,21.31
2022-08-27T22:06:38.081Z,21.29
2022-08-27T22:09:39.989Z,21.31
2022-08-27T22:12:41.698Z,21.25
2022-08-27T22:15:43.385Z,21.14
2022-08-27T22:18:45.184Z,21.19
2022-08-27T22:21:48.830Z,21.07
2022-08-27T22:24:50.560Z,21.07
2022-08-27T22:27:53.441Z,21.07
2022-08-27T22:30:55.108Z,20.97
2022-08-27T22:33:56.768Z,20.92
2022-08-27T22:36:59.886Z,20.86
2022-08-27T22:40:02.111Z,20.95
2022-08-27T22:43:05.143Z,20.98
2022-08-27T22:46:07.019Z,21.06
2022-08-27T22:49:08.816Z,21.07
2022-08-27T22:52:11.908Z,21.14
2022-08-27T22:55:14.801Z,21.13
2022-08-27T22:58:16.488Z,21.07
2022-08-27T23:01:19.777Z,21.02
2022-08-27T23:04:31.073Z,21.06
2022-08-27T23:07:42.681Z,21.12
2022-08-27T23:10:44.497Z,21.14
2022-08-27T23:13:46.173Z,21.15
2022-08-27T23:16:47.937Z,21.06
2022-08-27T23:19:49.833Z,21.05
2022-08-27T23:22:54.253Z,21.08
2022-08-27T23:25:56.048Z,21.07
2022-08-27T23:28:57.715Z,20.96
2022-08-27T23:31:59.447Z,21.00
2022-08-27T23:35:01.167Z,21.02
2022-08-27T23:38:04.243Z,20.99
2022-08-27T23:41:06.304Z,20.96
2022-08-27T23:44:08.011Z,20.92
2022-08-27T23:47:09.713Z,20.79
2022-08-27T23:50:11.973Z,20.70
2022-08-27T23:53:15.097Z,20.70
2022-08-27T23:56:16.789Z,20.61
2022-08-27T23:59:18.472Z,20.70
